createdAt,value
2023-03-10T00:02:09.803Z,1.14
2023-03-10T00:04:39.428Z,0.96
2023-03-10T00:07:08.819Z,0.76
2023-03-10T00:09:40.808Z,0.55
2023-03-10T00:12:11.241Z,0.80
2023-03-10T00:14:41.078Z,0.91
2023-03-10T00:17:10.510Z,1.12
2023-03-10T00:19:39.899Z,0.92
2023-03-10T00:22:09.414Z,0.78
2023-03-10T00:24:41.403Z,0.70
2023-03-10T00:27:10.784Z,0.99
2023-03-10T00:29:40.173Z,1.06
2023-03-10T00:32:10.377Z,1.35
2023-03-10T00:34:39.847Z,1.14
2023-03-10T00:37:09.398Z,1.01
2023-03-10T00:39:42.104Z,1.12
2023-03-10T00:42:11.478Z,1.18
2023-03-10T00:44:40.849Z,0.91
2023-03-10T00:47:10.315Z,0.87
2023-03-10T00:49:39.737Z,1.05
2023-03-10T00:52:09.409Z,1.22
2023-03-10T00:54:44.224Z,1.18
2023-03-10T00:57:13.616Z,0.98
2023-03-10T00:59:50.350Z,0.90
2023-03-10T01:02:20.302Z,1.17
2023-03-10T01:04:50.155Z,1.06
2023-03-10T01:07:19.605Z,1.13
2023-03-10T01:09:51.749Z,0.92
2023-03-10T01:12:21.921Z,0.96
2023-03-10T01:14:51.379Z,0.90
2023-03-10T01:17:20.760Z,1.01
2023-03-10T01:19:50.146Z,0.93
2023-03-10T01:22:19.625Z,0.85
2023-03-10T01:24:51.650Z,0.88
2023-03-10T01:27:21.036Z,1.02
2023-03-10T01:29:50.476Z,1.12
2023-03-10T01:32:19.957Z,0.98
2023-03-10T01:34:49.389Z,0.82
2023-03-10T01:37:18.947Z,0.96
2023-03-10T01:39:50.911Z,0.85
2023-03-10T01:42:20.338Z,1.11
2023-03-10T01:45:08.889Z,1.00
2023-03-10T01:47:38.365Z,1.07
2023-03-10T01:50:09.974Z,1.05
2023-03-10T01:52:39.655Z,0.94
2023-03-10T01:55:14.953Z,0.54
2023-03-10T01:57:46.723Z,0.56
2023-03-10T02:00:17.062Z,0.44
2023-03-10T02:02:52.183Z,0.33
2023-03-10T02:05:22.079Z,0.19
2023-03-10T02:07:51.959Z,0.09
2023-03-10T02:10:24.113Z,0.09
2023-03-10T02:12:53.511Z,0.05
2023-03-10T02:15:23.000Z,-0.07
2023-03-10T02:17:53.656Z,-0.10
2023-03-10T02:20:29.488Z,-0.16
2023-03-10T02:22:59.120Z,-0.12
2023-03-10T02:25:36.367Z,-0.12
2023-03-10T02:28:08.656Z,-0.15
2023-03-10T02:30:41.372Z,-0.18
2023-03-10T02:33:13.247Z,-0.21
2023-03-10T02:35:42.681Z,-0.25
2023-03-10T02:38:12.105Z,-0.20
2023-03-10T02:40:47.232Z,-0.21
2023-03-10T02:43:20.895Z,-0.22
2023-03-10T02:45:51.262Z,-0.22
2023-03-10T02:48:24.937Z,-0.24
2023-03-10T02:50:56.419Z,-0.24
2023-03-10T02:53:27.609Z,-0.24
2023-03-10T02:55:57.717Z,-0.28
2023-03-10T02:58:33.337Z,-0.27
2023-03-10T03:01:05.011Z,-0.31
2023-03-10T03:03:34.764Z,-0.28
2023-03-10T03:06:04.196Z,-0.28
2023-03-10T03:08:33.640Z,-0.30
2023-03-10T03:11:04.660Z,-0.24
2023-03-10T03:13:36.719Z,-0.38
2023-03-10T03:16:08.702Z,-0.34
2023-03-10T03:18:38.874Z,-0.36
2023-03-10T03:21:10.398Z,-0.33
2023-03-10T03:23:40.731Z,-0.32
2023-03-10T03:26:17.512Z,-0.31
2023-03-10T03:28:49.770Z,-0.34
2023-03-10T03:31:20.506Z,-0.30
2023-03-10T03:33:50.216Z,-0.29
2023-03-10T03:36:20.316Z,-0.25
2023-03-10T03:38:49.965Z,-0.28
2023-03-10T03:41:19.593Z,-0.24
2023-03-10T03:43:51.619Z,-0.21
2023-03-10T03:46:21.192Z,-0.30
2023-03-10T03:48:50.617Z,-0.32
2023-03-10T03:51:20.021Z,-0.39
2023-03-10T03:53:49.389Z,-0.32
2023-03-10T03:56:18.842Z,-0.43
2023-03-10T03:58:50.925Z,-0.39
2023-03-10T04:01:20.340Z,-0.43
2023-03-10T04:03:50.523Z,-0.42
2023-03-10T04:06:19.983Z,-0.45
2023-03-10T04:08:51.886Z,-0.54
2023-03-10T04:11:21.492Z,-0.50
2023-03-10T04:13:53.479Z,-0.47
2023-03-10T04:16:22.907Z,-0.55
2023-03-10T04:18:52.424Z,-0.55
2023-03-10T04:21:21.843Z,-0.60
2023-03-10T04:23:51.273Z,-0.56
2023-03-10T04:26:20.780Z,-0.53
2023-03-10T04:28:52.786Z,-0.57
2023-03-10T04:31:22.566Z,-0.59
2023-03-10T04:33:52.080Z,-0.53
2023-03-10T04:36:21.841Z,-0.65
2023-03-10T04:38:51.381Z,-0.65
2023-03-10T04:41:20.819Z,-0.75
2023-03-10T04:43:52.876Z,-0.74
2023-03-10T04:46:22.418Z,-0.68
2023-03-10T04:48:52.015Z,-0.64
2023-03-10T04:51:21.542Z,-0.68
2023-03-10T04:53:50.983Z,-0.63
2023-03-10T04:56:20.431Z,-0.76
2023-03-10T04:58:49.846Z,-0.78
2023-03-10T05:01:21.971Z,-0.83
2023-03-10T05:03:51.401Z,-0.83
2023-03-10T05:06:23.395Z,-0.88
2023-03-10T05:08:52.802Z,-0.79
2023-03-10T05:11:22.259Z,-0.82
2023-03-10T05:13:51.626Z,-0.85
2023-03-10T05:16:24.751Z,-0.83
2023-03-10T05:18:54.179Z,-0.92
2023-03-10T05:21:24.253Z,-0.89
2023-03-10T05:23:53.646Z,-0.89
2023-03-10T05:26:23.050Z,-0.86
2023-03-10T05:28:52.588Z,-0.88
2023-03-10T05:31:27.168Z,-0.86
2023-03-10T05:33:57.125Z,0.28
2023-03-10T05:36:26.766Z,0.40
2023-03-10T05:38:56.211Z,0.34
2023-03-10T05:41:25.659Z,0.04
2023-03-10T05:43:55.102Z,0.24
2023-03-10T05:46:27.597Z,0.33
2023-03-10T05:48:57.143Z,0.04
2023-03-10T05:51:26.771Z,-0.24
2023-03-10T05:53:56.191Z,-0.55
2023-03-10T05:56:25.680Z,-0.59
2023-03-10T05:58:55.058Z,-0.72
2023-03-10T06:01:27.122Z,-0.70
2023-03-10T06:03:56.623Z,-0.77
2023-03-10T06:06:26.114Z,-0.79
2023-03-10T06:08:56.649Z,-0.77
2023-03-10T06:11:26.179Z,-0.74
2023-03-10T06:13:55.820Z,-0.80
2023-03-10T06:16:28.247Z,-0.85
2023-03-10T06:18:58.598Z,-0.85
2023-03-10T06:21:29.589Z,-0.85
2023-03-10T06:23:59.265Z,-1.00
2023-03-10T06:26:28.727Z,-0.93
2023-03-10T06:28:58.167Z,-0.86
2023-03-10T06:31:30.434Z,-0.79
2023-03-10T06:34:01.492Z,-0.72
2023-03-10T06:36:32.707Z,-0.72
2023-03-10T06:39:02.276Z,-0.75
2023-03-10T06:41:31.817Z,-0.71
2023-03-10T06:44:01.295Z,-0.75
2023-03-10T06:46:33.367Z,-0.68
2023-03-10T06:49:02.800Z,-0.72
2023-03-10T06:51:32.212Z,-0.80
2023-03-10T06:54:01.632Z,-0.66
2023-03-10T06:56:31.121Z,-0.62
2023-03-10T06:59:00.625Z,-0.61
2023-03-10T07:01:34.477Z,-0.62
2023-03-10T07:04:04.480Z,-0.64
2023-03-10T07:06:33.913Z,-0.62
2023-03-10T07:09:03.532Z,-0.51
2023-03-10T07:11:33.090Z,-0.56
2023-03-10T07:14:02.850Z,-0.48
2023-03-10T07:16:34.908Z,-0.42
2023-03-10T07:19:04.383Z,-0.46
2023-03-10T07:21:34.354Z,-0.42
2023-03-10T07:24:03.822Z,-0.47
2023-03-10T07:26:33.559Z,-0.42
2023-03-10T07:29:03.018Z,-0.36
2023-03-10T07:31:36.648Z,-0.38
2023-03-10T07:34:06.055Z,-0.37
2023-03-10T07:36:35.552Z,-0.33
2023-03-10T07:39:04.986Z,-0.35
2023-03-10T07:41:46.305Z,-0.31
2023-03-10T07:44:15.732Z,-0.21
2023-03-10T07:46:47.972Z,-0.33
2023-03-10T07:49:17.394Z,-0.24
2023-03-10T07:51:46.836Z,-0.20
2023-03-10T07:54:16.396Z,-0.15
2023-03-10T07:56:45.871Z,-0.21
2023-03-10T07:59:15.300Z,0.00
2023-03-10T08:01:47.298Z,0.21
2023-03-10T08:04:17.404Z,0.33
2023-03-10T08:06:47.782Z,0.11
2023-03-10T08:09:17.331Z,-0.14
2023-03-10T08:11:46.745Z,-0.17
2023-03-10T08:14:20.940Z,-0.12
2023-03-10T08:16:53.297Z,-0.10
2023-03-10T08:19:22.887Z,-0.15
2023-03-10T08:21:53.356Z,-0.14
2023-03-10T08:24:22.769Z,-0.15
2023-03-10T08:26:52.679Z,-0.22
2023-03-10T08:29:22.677Z,-0.11
2023-03-10T08:31:54.737Z,-0.10
2023-03-10T08:34:24.233Z,-0.04
2023-03-10T08:36:53.616Z,-0.07
2023-03-10T08:39:23.050Z,-0.12
2023-03-10T08:41:52.431Z,-0.07
2023-03-10T08:44:22.196Z,-0.01
2023-03-10T08:46:54.551Z,-0.09
2023-03-10T08:49:24.701Z,-0.06
2023-03-10T08:51:54.219Z,0.03
2023-03-10T08:54:25.231Z,0.07
2023-03-10T08:56:54.893Z,0.08
2023-03-10T08:59:24.369Z,0.03
2023-03-10T09:01:56.594Z,0.03
2023-03-10T09:04:26.002Z,0.03
2023-03-10T09:06:55.410Z,-0.02
2023-03-10T09:09:24.907Z,0.04
2023-03-10T09:11:54.368Z,0.12
2023-03-10T09:14:23.761Z,0.09
2023-03-10T09:16:55.843Z,0.03
2023-03-10T09:19:25.373Z,0.06
2023-03-10T09:21:55.416Z,0.06
2023-03-10T09:24:24.959Z,0.08
2023-03-10T09:26:55.895Z,0.03
2023-03-10T09:29:42.022Z,0.02
2023-03-10T09:32:14.605Z,-0.09
2023-03-10T09:34:45.454Z,-0.11
2023-03-10T09:37:14.848Z,-0.07
2023-03-10T09:39:44.258Z,-0.04
2023-03-10T09:42:38.289Z,-0.04
2023-03-10T09:45:21.163Z,0.03
2023-03-10T09:48:12.391Z,-0.03
2023-03-10T09:50:43.763Z,-0.06
2023-03-10T09:53:25.043Z,-0.09
2023-03-10T09:55:54.526Z,-0.05
2023-03-10T09:58:32.159Z,0.03
2023-03-10T10:01:02.192Z,0.02
2023-03-10T10:03:51.830Z,0.11
2023-03-10T10:06:27.634Z,0.07
2023-03-10T10:09:05.981Z,-0.05
2023-03-10T10:11:36.556Z,-0.02
2023-03-10T10:14:28.372Z,-0.02
2023-03-10T10:17:03.615Z,-0.05
2023-03-10T10:19:37.206Z,0.03
2023-03-10T10:22:11.916Z,-0.02
2023-03-10T10:24:41.400Z,0.02
2023-03-10T10:27:11.052Z,0.05
2023-03-10T10:29:43.571Z,-0.01
2023-03-10T10:32:15.222Z,-0.01
2023-03-10T10:34:49.274Z,-0.02
2023-03-10T10:37:34.240Z,0.03
2023-03-10T10:40:09.303Z,0.06
2023-03-10T10:42:38.808Z,0.17
2023-03-10T10:45:26.891Z,0.16
2023-03-10T10:47:56.280Z,0.03
2023-03-10T10:50:29.684Z,0.11
2023-03-10T10:53:17.721Z,0.14
2023-03-10T10:55:47.870Z,0.17
2023-03-10T10:58:29.858Z,0.16
2023-03-10T11:01:01.448Z,0.15
2023-03-10T11:03:33.580Z,0.21
2023-03-10T11:06:15.765Z,0.23
2023-03-10T11:08:51.242Z,0.33
2023-03-10T11:11:29.490Z,0.38
2023-03-10T11:14:10.238Z,0.55
2023-03-10T11:16:47.010Z,0.64
2023-03-10T11:19:23.689Z,0.79
2023-03-10T11:21:59.644Z,0.72
2023-03-10T11:24:34.053Z,0.80
2023-03-10T11:27:11.612Z,0.94
2023-03-10T11:29:53.813Z,0.89
2023-03-10T11:32:28.348Z,0.73
2023-03-10T11:34:58.352Z,0.84
2023-03-10T11:37:34.248Z,0.90
2023-03-10T11:40:18.211Z,0.92
2023-03-10T11:42:51.802Z,0.82
2023-03-10T11:45:29.470Z,0.70
2023-03-10T11:48:05.809Z,1.06
2023-03-10T11:50:40.942Z,0.92
2023-03-10T11:53:18.117Z,0.81
2023-03-10T11:55:48.288Z,0.69
2023-03-10T11:58:25.659Z,0.53
2023-03-10T12:00:55.892Z,0.33
2023-03-10T12:03:36.034Z,0.30
2023-03-10T12:06:06.311Z,0.63
2023-03-10T12:08:39.194Z,0.51
2023-03-10T12:11:15.124Z,0.40
2023-03-10T12:13:47.707Z,0.49
2023-03-10T12:16:21.232Z,0.53
2023-03-10T12:18:50.861Z,0.43
2023-03-10T12:21:22.952Z,0.46
2023-03-10T12:23:56.254Z,0.54
2023-03-10T12:26:56.059Z,0.60
2023-03-10T12:29:31.845Z,0.56
2023-03-10T12:32:01.507Z,0.56
2023-03-10T12:34:32.693Z,0.56
2023-03-10T12:37:10.491Z,0.57
2023-03-10T12:39:44.279Z,0.60
2023-03-10T12:42:32.033Z,0.60
2023-03-10T12:45:20.279Z,0.60
2023-03-10T12:47:56.568Z,0.56
2023-03-10T12:50:47.234Z,0.50
2023-03-10T12:53:28.603Z,0.56
2023-03-10T12:56:28.836Z,0.49
2023-03-10T12:59:01.786Z,0.52
2023-03-10T13:01:36.685Z,0.48
2023-03-10T13:04:09.366Z,0.49
2023-03-10T13:06:41.747Z,0.36
2023-03-10T13:09:14.522Z,0.35
2023-03-10T13:11:47.938Z,0.36
2023-03-10T13:14:19.931Z,0.31
2023-03-10T13:16:56.412Z,0.38
2023-03-10T13:19:28.247Z,0.41
2023-03-10T13:21:58.226Z,0.42
2023-03-10T13:24:31.135Z,0.38
2023-03-10T13:27:14.909Z,0.42
2023-03-10T13:29:56.614Z,0.51
2023-03-10T13:32:26.210Z,0.46
2023-03-10T13:34:56.557Z,0.36
2023-03-10T13:37:26.633Z,0.30
2023-03-10T13:40:10.060Z,0.24
2023-03-10T13:42:44.538Z,0.34
2023-03-10T13:45:24.445Z,0.44
2023-03-10T13:47:54.194Z,0.37
2023-03-10T13:50:23.622Z,0.36
2023-03-10T13:52:57.790Z,0.40
2023-03-10T13:55:28.368Z,0.45
2023-03-10T13:58:00.609Z,0.51
2023-03-10T14:00:30.640Z,0.51
2023-03-10T14:03:00.212Z,0.40
2023-03-10T14:05:45.699Z,0.51
2023-03-10T14:08:23.612Z,0.58
2023-03-10T14:10:53.074Z,0.59
2023-03-10T14:13:48.974Z,0.58
2023-03-10T14:16:18.528Z,0.74
2023-03-10T14:18:48.084Z,0.79
2023-03-10T14:21:36.667Z,0.74
2023-03-10T14:24:08.621Z,0.92
2023-03-10T14:26:38.072Z,1.13
2023-03-10T14:29:16.384Z,1.17
2023-03-10T14:31:46.307Z,1.27
2023-03-10T14:34:16.019Z,1.50
2023-03-10T14:36:45.416Z,1.37
2023-03-10T14:39:14.891Z,1.23
2023-03-10T14:41:44.332Z,0.98
2023-03-10T14:44:16.927Z,1.01
2023-03-10T14:46:47.956Z,0.96
2023-03-10T14:49:19.185Z,0.89
2023-03-10T14:51:48.674Z,0.86
2023-03-10T14:54:20.094Z,0.72
2023-03-10T14:56:52.486Z,0.73
2023-03-10T14:59:24.543Z,0.81
2023-03-10T15:01:53.993Z,0.82
2023-03-10T15:04:23.556Z,0.84
2023-03-10T15:06:53.196Z,0.83
2023-03-10T15:09:22.820Z,0.92
2023-03-10T15:11:52.334Z,0.86
2023-03-10T15:14:24.416Z,0.82
2023-03-10T15:16:55.529Z,0.73
2023-03-10T15:19:26.870Z,0.70
2023-03-10T15:21:56.936Z,0.76
2023-03-10T15:24:26.449Z,0.72
2023-03-10T15:26:55.889Z,0.71
2023-03-10T15:29:27.931Z,0.79
2023-03-10T15:31:58.056Z,0.75
2023-03-10T15:34:27.476Z,0.78
2023-03-10T15:36:56.869Z,0.60
2023-03-10T15:39:31.827Z,0.62
2023-03-10T15:42:02.131Z,0.67
2023-03-10T15:44:34.204Z,0.70
2023-03-10T15:47:03.621Z,0.70
2023-03-10T15:49:33.039Z,0.76
2023-03-10T15:52:02.462Z,0.69
2023-03-10T15:54:31.871Z,0.64
2023-03-10T15:57:01.247Z,0.50
2023-03-10T15:59:30.700Z,0.51
2023-03-10T16:02:02.835Z,0.52
2023-03-10T16:04:33.439Z,0.36
2023-03-10T16:07:04.777Z,0.45
2023-03-10T16:09:35.285Z,0.56
2023-03-10T16:12:04.776Z,0.57
2023-03-10T16:14:34.210Z,0.55
2023-03-10T16:17:06.294Z,0.44
2023-03-10T16:19:36.099Z,0.43
2023-03-10T16:22:05.541Z,0.41
2023-03-10T16:24:35.004Z,0.38
2023-03-10T16:27:04.446Z,0.33
2023-03-10T16:29:34.233Z,0.38
2023-03-10T16:32:06.275Z,0.52
2023-03-10T16:34:35.817Z,0.55
2023-03-10T16:37:08.112Z,0.43
2023-03-10T16:39:38.052Z,0.43
2023-03-10T16:42:07.978Z,0.38
2023-03-10T16:44:37.478Z,0.39
2023-03-10T16:47:09.564Z,0.45
2023-03-10T16:49:39.003Z,0.31
2023-03-10T16:52:10.770Z,0.20
2023-03-10T16:54:40.505Z,0.19
2023-03-10T16:57:11.889Z,0.23
2023-03-10T16:59:41.788Z,0.18
2023-03-10T17:02:17.038Z,0.15
2023-03-10T17:04:46.632Z,0.18
2023-03-10T17:07:16.178Z,0.14
2023-03-10T17:09:45.845Z,0.12
2023-03-10T17:12:15.247Z,0.08
2023-03-10T17:14:44.737Z,0.07
2023-03-10T17:17:16.801Z,0.07
2023-03-10T17:19:46.316Z,0.08
2023-03-10T17:22:15.754Z,0.06
2023-03-10T17:24:45.203Z,-0.01
2023-03-10T17:27:14.647Z,-0.03
2023-03-10T17:29:44.020Z,-0.02
2023-03-10T17:32:16.928Z,-0.04
2023-03-10T17:34:52.000Z,-0.09
2023-03-10T17:37:21.490Z,-0.12
2023-03-10T17:39:51.015Z,-0.20
2023-03-10T17:42:20.534Z,-0.22
2023-03-10T17:44:49.962Z,-0.31
2023-03-10T17:47:21.933Z,-0.39
2023-03-10T17:49:51.575Z,-0.38
2023-03-10T17:52:20.948Z,-0.37
2023-03-10T17:54:50.828Z,-0.39
2023-03-10T17:57:20.391Z,-0.38
2023-03-10T17:59:51.117Z,-0.37
2023-03-10T18:02:23.151Z,-0.50
2023-03-10T18:04:52.654Z,-0.51
2023-03-10T18:07:22.038Z,-0.55
2023-03-10T18:09:51.413Z,-0.31
2023-03-10T18:12:20.812Z,-0.35
2023-03-10T18:14:50.297Z,-0.32
2023-03-10T18:17:19.703Z,-0.32
2023-03-10T18:19:53.542Z,-0.40
2023-03-10T18:22:22.933Z,-0.44
2023-03-10T18:24:52.381Z,-0.38
2023-03-10T18:27:22.572Z,-0.29
2023-03-10T18:29:52.061Z,-0.31
2023-03-10T18:32:21.697Z,-0.35
2023-03-10T18:34:53.976Z,-0.35
2023-03-10T18:37:23.403Z,-0.52
2023-03-10T18:39:52.842Z,-0.56
2023-03-10T18:42:23.333Z,-0.60
2023-03-10T18:44:52.798Z,-0.66
2023-03-10T18:47:22.427Z,-0.66
2023-03-10T18:49:58.526Z,-0.77
2023-03-10T18:52:28.079Z,-0.75
2023-03-10T18:55:00.819Z,-0.78
2023-03-10T18:57:30.808Z,-0.68
2023-03-10T19:00:01.040Z,-0.69
2023-03-10T19:02:30.837Z,-0.75
2023-03-10T19:05:05.015Z,-0.77
2023-03-10T19:07:36.761Z,-0.80
2023-03-10T19:10:06.285Z,-0.76
2023-03-10T19:12:35.668Z,-0.82
2023-03-10T19:15:08.965Z,-0.82
2023-03-10T19:17:39.659Z,-0.81
2023-03-10T19:20:14.501Z,-0.78
2023-03-10T19:22:45.343Z,-0.88
2023-03-10T19:25:14.890Z,-0.87
2023-03-10T19:27:44.435Z,-0.93
2023-03-10T19:30:19.968Z,-0.96
2023-03-10T19:32:49.745Z,-0.81
2023-03-10T19:35:21.927Z,-0.76
2023-03-10T19:37:51.290Z,-0.80
2023-03-10T19:40:23.074Z,-0.75
2023-03-10T19:42:52.570Z,-0.69
2023-03-10T19:45:22.708Z,-0.71
2023-03-10T19:47:52.464Z,-0.69
2023-03-10T19:50:25.318Z,-0.76
2023-03-10T19:52:57.541Z,-0.71
2023-03-10T19:55:27.457Z,-0.66
2023-03-10T19:57:58.705Z,-0.86
2023-03-10T20:00:35.573Z,-0.94
2023-03-10T20:03:05.202Z,-0.94
2023-03-10T20:05:37.252Z,-0.99
2023-03-10T20:08:07.169Z,-1.00
2023-03-10T20:10:36.623Z,-1.02
2023-03-10T20:13:06.102Z,-1.06
2023-03-10T20:15:35.546Z,-1.04
2023-03-10T20:18:04.949Z,-1.13
2023-03-10T20:20:36.984Z,-1.12
2023-03-10T20:23:06.861Z,-1.12
2023-03-10T20:25:36.433Z,-1.14
2023-03-10T20:28:05.850Z,-1.17
2023-03-10T20:30:35.992Z,-1.19
2023-03-10T20:33:05.779Z,-1.17
2023-03-10T20:35:38.486Z,-1.18
2023-03-10T20:38:08.064Z,-1.23
2023-03-10T20:40:38.592Z,-1.20
2023-03-10T20:43:08.790Z,-1.23
2023-03-10T20:45:38.795Z,-1.17
2023-03-10T20:48:09.063Z,-1.19
2023-03-10T20:50:41.087Z,-1.18
2023-03-10T20:53:10.468Z,-1.26
2023-03-10T20:55:39.922Z,-1.29
2023-03-10T20:58:09.336Z,-1.28
2023-03-10T21:00:41.632Z,-1.25
2023-03-10T21:03:11.036Z,-1.25
2023-03-10T21:05:43.083Z,-1.21
2023-03-10T21:08:12.569Z,-1.26
2023-03-10T21:10:44.575Z,-1.31
2023-03-10T21:13:14.027Z,-1.28
2023-03-10T21:15:43.550Z,-1.28
2023-03-10T21:18:12.976Z,-1.24
2023-03-10T21:20:44.966Z,-1.25
2023-03-10T21:23:14.343Z,-1.23
2023-03-10T21:25:43.918Z,-1.28
2023-03-10T21:28:13.362Z,-1.30
2023-03-10T21:30:43.107Z,-1.31
2023-03-10T21:33:12.636Z,-1.29
2023-03-10T21:35:43.101Z,-1.37
2023-03-10T21:38:15.670Z,-1.42
2023-03-10T21:40:45.095Z,-1.44
2023-03-10T21:43:14.478Z,-1.45
2023-03-10T21:45:43.874Z,-1.45
2023-03-10T21:48:14.151Z,-1.45
2023-03-10T21:50:43.716Z,-1.42
2023-03-10T21:53:15.794Z,-1.40
2023-03-10T21:55:45.293Z,-1.40
2023-03-10T21:58:14.760Z,-1.38
2023-03-10T22:00:44.221Z,-1.38
2023-03-10T22:03:13.580Z,-1.38
2023-03-10T22:05:42.969Z,-1.33
2023-03-10T22:08:14.999Z,-1.32
2023-03-10T22:10:45.451Z,-1.35
2023-03-10T22:13:14.925Z,-1.32
2023-03-10T22:15:44.401Z,-1.34
2023-03-10T22:18:13.824Z,-1.37
2023-03-10T22:20:43.264Z,-1.37
2023-03-10T22:23:15.654Z,-1.34
2023-03-10T22:25:45.071Z,-1.35
2023-03-10T22:28:14.569Z,-1.37
2023-03-10T22:30:44.483Z,-1.36
2023-03-10T22:33:13.907Z,-1.38
2023-03-10T22:35:45.211Z,-1.40
2023-03-10T22:38:17.300Z,-1.42
2023-03-10T22:40:46.781Z,-1.45
2023-03-10T22:43:16.649Z,-1.44
2023-03-10T22:45:46.768Z,-1.43
2023-03-10T22:48:16.160Z,-1.43
2023-03-10T22:50:47.252Z,-1.46
2023-03-10T22:53:21.597Z,-1.44
2023-03-10T22:55:52.280Z,-1.42
2023-03-10T22:58:21.753Z,-1.42
2023-03-10T23:00:51.201Z,-1.40
2023-03-10T23:03:20.879Z,-1.38
2023-03-10T23:05:50.314Z,-1.41
2023-03-10T23:08:22.292Z,-1.46
2023-03-10T23:10:51.989Z,-1.48
2023-03-10T23:13:22.791Z,-1.52
2023-03-10T23:15:52.290Z,-1.51
2023-03-10T23:18:22.384Z,-1.47
2023-03-10T23:20:53.064Z,-1.54
2023-03-10T23:23:25.083Z,-1.48
2023-03-10T23:25:54.800Z,-1.52
2023-03-10T23:28:24.345Z,-1.54
2023-03-10T23:30:54.344Z,-1.55
2023-03-10T23:33:25.605Z,-1.54
2023-03-10T23:35:55.177Z,-1.54
2023-03-10T23:38:28.494Z,-1.52
2023-03-10T23:40:58.064Z,-1.52
2023-03-10T23:43:27.537Z,-1.59
2023-03-10T23:45:57.067Z,-1.56
2023-03-10T23:48:26.653Z,-1.54
2023-03-10T23:50:56.069Z,-1.56
2023-03-10T23:53:28.736Z,-1.51
2023-03-10T23:56:00.217Z,-1.39
2023-03-10T23:58:30.554Z,-1.22
